createdAt,value
2022-08-02T00:01:37.094Z,99.90
2022-08-02T00:05:59.388Z,99.90
2022-08-02T00:10:21.673Z,99.90
2022-08-02T00:14:43.914Z,99.90
2022-08-02T00:19:05.915Z,99.90
2022-08-02T00:23:27.614Z,99.90
2022-08-02T00:27:49.773Z,99.90
2022-08-02T00:32:12.364Z,99.90
2022-08-02T00:36:34.693Z,99.90
2022-08-02T00:40:58.126Z,99.90
2022-08-02T00:45:20.153Z,99.90
2022-08-02T00:50:02.293Z,99.90
2022-08-02T00:54:24.635Z,99.90
2022-08-02T00:58:46.493Z,99.90
2022-08-02T01:03:08.733Z,99.90
2022-08-02T01:07:30.833Z,99.90
2022-08-02T01:11:52.813Z,99.90
2022-08-02T01:16:23.573Z,99.90
2022-08-02T01:21:22.714Z,99.90
2022-08-02T01:25:59.436Z,99.90
2022-08-02T01:30:22.153Z,99.90
2022-08-02T01:34:53.894Z,99.90
2022-08-02T01:39:26.648Z,99.90
2022-08-02T01:44:03.194Z,99.90
2022-08-02T01:48:28.892Z,99.90
2022-08-02T01:52:55.035Z,99.90
2022-08-02T01:57:18.772Z,99.90
2022-08-02T02:01:42.011Z,99.90
2022-08-02T02:06:07.632Z,99.90
2022-08-02T02:10:34.052Z,99.90
2022-08-02T02:14:57.193Z,99.90
2022-08-02T02:19:20.775Z,99.90
2022-08-02T02:23:43.813Z,99.90
2022-08-02T02:28:16.673Z,99.90
2022-08-02T02:32:41.198Z,99.90
2022-08-02T02:37:08.675Z,99.90
2022-08-02T02:41:30.613Z,99.90
2022-08-02T02:45:53.333Z,99.90
2022-08-02T02:50:18.112Z,99.90
2022-08-02T02:54:40.413Z,99.90
2022-08-02T02:59:03.666Z,99.90
2022-08-02T03:03:25.953Z,99.90
2022-08-02T03:07:47.853Z,99.90
2022-08-02T03:12:11.164Z,99.90
2022-08-02T03:16:33.653Z,99.90
2022-08-02T03:21:07.132Z,99.90
2022-08-02T03:25:28.834Z,99.90
2022-08-02T03:29:50.833Z,99.90
2022-08-02T03:34:12.981Z,99.90
2022-08-02T03:38:36.713Z,99.90
2022-08-02T03:42:59.474Z,99.90
2022-08-02T03:47:23.393Z,99.90
2022-08-02T03:51:46.753Z,99.90
2022-08-02T03:56:09.793Z,99.90
2022-08-02T04:00:32.110Z,99.90
2022-08-02T04:04:54.173Z,99.90
2022-08-02T04:09:16.114Z,99.90
2022-08-02T04:13:39.015Z,99.90
2022-08-02T04:18:04.122Z,99.90
2022-08-02T04:22:45.995Z,99.90
2022-08-02T04:27:48.870Z,99.90
2022-08-02T04:31:54.233Z,99.90
2022-08-02T04:36:16.393Z,99.90
2022-08-02T04:40:56.233Z,99.90
2022-08-02T04:45:19.354Z,99.90
2022-08-02T04:49:41.687Z,99.90
2022-08-02T04:54:09.295Z,99.90
2022-08-02T04:58:40.892Z,99.90
2022-08-02T05:03:03.313Z,99.90
2022-08-02T05:07:25.195Z,99.90
2022-08-02T05:11:54.899Z,99.90
2022-08-02T05:16:17.734Z,99.90
2022-08-02T05:20:39.994Z,99.90
2022-08-02T05:25:02.054Z,95.60
2022-08-02T05:29:24.174Z,98.30
2022-08-02T05:33:46.196Z,99.90
2022-08-02T05:38:10.121Z,99.90
2022-08-02T05:42:32.676Z,99.90
2022-08-02T05:46:54.693Z,99.90
2022-08-02T05:51:32.512Z,99.90
2022-08-02T05:56:42.635Z,99.90
2022-08-02T06:01:05.734Z,95.70
2022-08-02T06:05:32.969Z,92.10
2022-08-02T06:09:55.053Z,93.70
2022-08-02T06:14:18.133Z,96.30
2022-08-02T06:18:43.414Z,98.30
2022-08-02T06:23:13.302Z,99.60
2022-08-02T06:27:36.095Z,99.50
2022-08-02T06:31:59.256Z,99.20
2022-08-02T06:36:49.094Z,99.30
2022-08-02T06:41:15.034Z,99.90
2022-08-02T06:45:37.533Z,97.40
2022-08-02T06:50:00.020Z,92.80
2022-08-02T06:54:22.174Z,80.40
2022-08-02T06:58:44.196Z,71.70
2022-08-02T07:03:07.115Z,69.50
2022-08-02T07:07:29.514Z,66.40
2022-08-02T07:11:51.573Z,61.90
2022-08-02T07:16:13.613Z,56.30
2022-08-02T07:20:35.657Z,55.10
2022-08-02T07:24:59.696Z,57.50
2022-08-02T07:29:21.935Z,57.80
2022-08-02T07:33:47.078Z,55.70
2022-08-02T07:38:10.474Z,57.40
2022-08-02T07:42:32.393Z,56.70
2022-08-02T07:46:54.254Z,56.90
2022-08-02T07:51:17.430Z,54.20
2022-08-02T07:55:40.839Z,54.30
2022-08-02T08:00:05.233Z,54.70
2022-08-02T08:04:33.654Z,55.70
2022-08-02T08:08:55.979Z,52.90
2022-08-02T08:13:18.174Z,51.00
2022-08-02T08:17:40.349Z,48.50
2022-08-02T08:22:03.462Z,47.70
2022-08-02T08:26:26.874Z,47.40
2022-08-02T08:30:49.353Z,45.10
2022-08-02T08:35:11.774Z,43.10
2022-08-02T08:39:33.777Z,40.00
2022-08-02T08:44:15.618Z,39.50
2022-08-02T08:48:43.617Z,40.10
2022-08-02T08:53:12.202Z,39.80
2022-08-02T08:57:40.196Z,39.60
2022-08-02T09:02:16.865Z,39.10
2022-08-02T09:06:44.905Z,39.50
2022-08-02T09:11:23.717Z,38.40
2022-08-02T09:15:56.594Z,36.70
2022-08-02T09:20:18.874Z,35.20
2022-08-02T09:24:50.533Z,35.60
2022-08-02T09:29:12.545Z,36.60
2022-08-02T09:33:35.353Z,35.50
2022-08-02T09:38:13.066Z,36.00
2022-08-02T09:42:34.973Z,35.80
2022-08-02T09:46:57.181Z,35.70
2022-08-02T09:51:22.166Z,35.50
2022-08-02T09:55:44.075Z,34.80
2022-08-02T10:00:14.888Z,35.70
2022-08-02T10:04:52.552Z,36.20
2022-08-02T10:09:16.516Z,35.20
2022-08-02T10:13:39.054Z,34.70
2022-08-02T10:18:01.275Z,35.10
2022-08-02T10:22:25.838Z,35.50
2022-08-02T10:26:49.593Z,36.50
2022-08-02T10:31:12.632Z,36.40
2022-08-02T10:35:39.735Z,35.60
2022-08-02T10:40:02.245Z,35.20
2022-08-02T10:44:36.315Z,37.20
2022-08-02T10:54:10.072Z,37.70
2022-08-02T10:58:34.793Z,37.90
2022-08-02T11:02:56.734Z,40.70
2022-08-02T11:07:31.012Z,44.70
2022-08-02T11:12:12.476Z,47.40
2022-08-02T11:16:56.533Z,49.90
2022-08-02T11:21:33.755Z,51.70
2022-08-02T11:26:03.698Z,48.80
2022-08-02T11:30:32.773Z,49.00
2022-08-02T11:34:55.712Z,49.70
2022-08-02T11:39:22.916Z,50.50
2022-08-02T11:43:45.774Z,50.90
2022-08-02T11:48:07.674Z,52.60
2022-08-02T11:52:35.054Z,54.00
2022-08-02T11:57:19.868Z,54.30
2022-08-02T12:01:46.012Z,53.70
2022-08-02T12:06:16.406Z,54.00
2022-08-02T12:10:49.013Z,54.50
2022-08-02T12:15:11.153Z,55.10
2022-08-02T12:19:33.653Z,56.30
2022-08-02T12:23:59.454Z,57.20
2022-08-02T12:28:26.818Z,56.20
2022-08-02T12:32:49.072Z,55.60
2022-08-02T12:37:11.513Z,55.50
2022-08-02T12:41:33.693Z,55.20
2022-08-02T12:45:57.615Z,54.40
2022-08-02T12:50:43.632Z,55.30
2022-08-02T12:55:22.713Z,55.20
2022-08-02T12:59:51.174Z,54.80
2022-08-02T13:04:16.393Z,53.30
2022-08-02T13:08:39.696Z,54.00
2022-08-02T13:13:02.513Z,55.00
2022-08-02T13:17:24.612Z,55.80
2022-08-02T13:22:01.979Z,54.30
2022-08-02T13:26:31.033Z,55.00
2022-08-02T13:30:53.792Z,55.20
2022-08-02T13:35:18.171Z,54.30
2022-08-02T13:39:40.794Z,54.50
2022-08-02T13:44:10.078Z,52.70
2022-08-02T13:48:34.054Z,52.60
2022-08-02T13:52:55.919Z,52.10
2022-08-02T13:57:18.133Z,52.70
2022-08-02T14:01:40.768Z,52.50
2022-08-02T14:06:03.014Z,54.10
2022-08-02T14:10:30.501Z,54.20
2022-08-02T14:14:52.893Z,56.00
2022-08-02T14:19:15.616Z,55.70
2022-08-02T14:23:50.099Z,54.40
2022-08-02T14:28:13.083Z,55.40
2022-08-02T14:32:34.954Z,55.80
2022-08-02T14:36:57.553Z,55.90
2022-08-02T14:41:19.853Z,56.40
2022-08-02T14:45:41.880Z,56.90
2022-08-02T14:50:05.007Z,56.20
2022-08-02T14:54:30.911Z,56.60
2022-08-02T14:58:53.401Z,57.10
2022-08-02T15:03:15.265Z,57.10
2022-08-02T15:07:42.537Z,56.60
2022-08-02T15:12:07.175Z,58.00
2022-08-02T15:16:54.854Z,57.80
2022-08-02T15:21:40.166Z,57.00
2022-08-02T15:25:54.633Z,56.10
2022-08-02T15:30:16.741Z,56.10
2022-08-02T15:34:38.967Z,56.70
2022-08-02T15:39:00.872Z,56.60
2022-08-02T15:43:23.034Z,55.70
2022-08-02T15:47:50.299Z,55.90
2022-08-02T15:52:13.167Z,55.40
2022-08-02T15:56:35.615Z,55.60
2022-08-02T16:00:57.378Z,56.00
2022-08-02T16:05:20.192Z,56.30
2022-08-02T16:09:42.513Z,56.10
2022-08-02T16:14:04.711Z,56.50
2022-08-02T16:18:26.513Z,55.90
2022-08-02T16:22:48.653Z,56.40
2022-08-02T16:27:10.978Z,57.10
2022-08-02T16:31:33.215Z,56.80
2022-08-02T16:35:55.243Z,56.50
2022-08-02T16:40:17.193Z,56.40
2022-08-02T16:44:39.074Z,57.20
2022-08-02T16:50:07.276Z,58.00
2022-08-02T16:53:59.901Z,57.80
2022-08-02T16:58:22.693Z,58.20
2022-08-02T17:02:47.051Z,58.50
2022-08-02T17:08:06.303Z,58.60
2022-08-02T17:11:53.053Z,58.70
2022-08-02T17:16:20.671Z,59.70
2022-08-02T17:20:48.553Z,61.10
2022-08-02T17:25:13.633Z,61.60
2022-08-02T17:29:37.013Z,63.00
2022-08-02T17:34:04.542Z,64.00
2022-08-02T17:38:27.601Z,64.70
2022-08-02T17:42:49.633Z,64.70
2022-08-02T17:47:11.564Z,65.60
2022-08-02T17:52:48.012Z,66.50
2022-08-02T17:56:16.514Z,67.50
2022-08-02T18:00:38.891Z,67.90
2022-08-02T18:05:01.901Z,68.90
2022-08-02T18:09:27.173Z,69.70
2022-08-02T18:13:53.291Z,70.50
2022-08-02T18:18:19.299Z,72.30
2022-08-02T18:22:55.460Z,73.70
2022-08-02T18:27:18.053Z,73.70
2022-08-02T18:31:50.992Z,74.50
2022-08-02T18:36:24.384Z,74.60
2022-08-02T18:40:50.783Z,75.10
2022-08-02T18:45:19.990Z,76.20
2022-08-02T18:49:46.504Z,76.90
2022-08-02T18:54:10.322Z,77.60
2022-08-02T18:58:33.105Z,78.50
2022-08-02T19:02:55.373Z,79.30
2022-08-02T19:07:18.665Z,80.70
2022-08-02T19:11:48.245Z,81.30
2022-08-02T19:16:12.454Z,83.40
2022-08-02T19:20:35.462Z,85.30
2022-08-02T19:25:01.808Z,86.50
2022-08-02T19:29:42.343Z,88.60
2022-08-02T19:34:07.956Z,90.90
2022-08-02T19:38:30.257Z,92.40
2022-08-02T19:44:27.559Z,94.70
2022-08-02T19:47:39.344Z,97.10
2022-08-02T19:52:01.715Z,99.00
2022-08-02T19:56:43.454Z,99.90
2022-08-02T20:01:05.914Z,99.90
2022-08-02T20:05:28.145Z,99.90
2022-08-02T20:09:53.214Z,99.90
2022-08-02T20:14:14.914Z,99.90
2022-08-02T20:18:37.173Z,99.90
2022-08-02T20:23:32.680Z,99.90
2022-08-02T20:27:56.213Z,99.90
2022-08-02T20:32:24.573Z,99.90
2022-08-02T20:36:46.493Z,99.90
2022-08-02T20:41:21.671Z,99.90
2022-08-02T20:45:44.306Z,99.90
2022-08-02T20:50:31.305Z,99.90
2022-08-02T20:54:53.856Z,99.90
2022-08-02T20:59:16.249Z,99.90
2022-08-02T21:03:39.078Z,99.90
2022-08-02T21:08:04.797Z,99.90
2022-08-02T21:12:29.943Z,99.90
2022-08-02T21:16:52.395Z,99.90
2022-08-02T21:21:14.518Z,99.90
2022-08-02T21:25:50.727Z,99.90
2022-08-02T21:30:19.806Z,99.90
2022-08-02T21:34:46.214Z,99.90
2022-08-02T21:39:11.397Z,99.90
2022-08-02T21:43:35.336Z,99.90
2022-08-02T21:48:01.615Z,99.90
2022-08-02T21:52:26.009Z,99.90
2022-08-02T21:56:53.267Z,99.90
2022-08-02T22:01:15.274Z,99.90
2022-08-02T22:05:39.555Z,99.90
2022-08-02T22:10:09.685Z,99.90
2022-08-02T22:14:31.754Z,99.90
2022-08-02T22:18:54.574Z,99.90
2022-08-02T22:23:22.457Z,99.90
2022-08-02T22:28:35.895Z,99.90
2022-08-02T22:33:00.034Z,99.90
2022-08-02T22:38:14.632Z,99.90
2022-08-02T22:42:06.127Z,99.90
2022-08-02T22:46:29.494Z,99.90
2022-08-02T22:50:53.834Z,99.90
2022-08-02T22:55:16.051Z,99.90
2022-08-02T22:59:39.971Z,99.90
2022-08-02T23:04:02.418Z,99.90
2022-08-02T23:08:24.814Z,99.90
2022-08-02T23:12:46.734Z,99.90
2022-08-02T23:17:27.674Z,99.90
2022-08-02T23:22:02.844Z,99.90
2022-08-02T23:26:25.433Z,99.90
2022-08-02T23:30:47.474Z,99.90
2022-08-02T23:35:10.076Z,99.90
2022-08-02T23:39:39.873Z,99.90
2022-08-02T23:44:16.083Z,99.90
2022-08-02T23:48:38.115Z,99.90
2022-08-02T23:53:00.316Z,99.90
2022-08-02T23:57:22.714Z,99.90
